< < Back
Terminal Aerodrome Forecast


Current Version              Previous Versions:   1  2  3  4  5  6  7  8  9  

Terminal Aerodrome Forecast

578
FTUS42 KILM 011100
TAFILM
TAF
KILM 011135Z 0112/0212 04008KT P6SM VCSH BKN010 OVC070
      TEMPO 0112/0116 -RA SCT010 SCT020 OVC080
     FM011600 14009KT P6SM VCSH SCT010 BKN020 OVC070
     FM012200 VRB05KT 6SM -RA BKN008 OVC020
     FM020100 32004KT 3SM BR BKN006 OVC015=



Latest METAR

435
SAUS70 KWBC 011200 RRX
MTRILM
METAR KILM 011153Z 04008KT 10SM OVC010 02/M01 A3054 RMK AO2
UPE1056RAB1056E21 SLP341 P0000 60000 T00221006 10033 20022
58000


USA.gov is the U.S. government's official web portal to all federal, state and local government web resources and services.